createdAt,value
2023-02-27T00:00:01.260Z,981.94
2023-02-27T00:01:01.091Z,981.97
2023-02-27T00:02:01.002Z,981.95
2023-02-27T00:03:00.987Z,981.95
2023-02-27T00:04:00.882Z,981.95
2023-02-27T00:05:00.753Z,981.99
2023-02-27T00:06:00.650Z,982.01
2023-02-27T00:07:00.576Z,981.98
2023-02-27T00:08:00.473Z,982.00
2023-02-27T00:09:00.435Z,981.96
2023-02-27T00:10:00.304Z,982.02
2023-02-27T00:11:00.220Z,982.00
2023-02-27T00:12:00.125Z,982.00
2023-02-27T00:13:00.035Z,982.00
2023-02-27T00:13:59.951Z,982.05
2023-02-27T00:14:59.857Z,982.00
2023-02-27T00:15:59.830Z,982.02
2023-02-27T00:16:59.689Z,981.99
2023-02-27T00:17:59.591Z,981.97
2023-02-27T00:18:59.531Z,981.98
2023-02-27T00:19:59.420Z,981.98
2023-02-27T00:20:59.333Z,981.98
2023-02-27T00:21:59.244Z,981.96
2023-02-27T00:22:59.158Z,981.98
2023-02-27T00:23:59.076Z,981.97
2023-02-27T00:24:58.986Z,982.00
2023-02-27T00:25:58.892Z,981.99
2023-02-27T00:26:58.808Z,981.97
2023-02-27T00:27:58.715Z,981.99
2023-02-27T00:28:58.641Z,982.01
2023-02-27T00:29:58.536Z,982.01
2023-02-27T00:30:58.585Z,982.03
2023-02-27T00:31:58.458Z,982.02
2023-02-27T00:32:58.281Z,982.05
2023-02-27T00:33:58.189Z,982.03
2023-02-27T00:34:58.098Z,982.01
2023-02-27T00:35:58.013Z,981.99
2023-02-27T00:36:57.922Z,981.99
2023-02-27T00:37:57.834Z,981.96
2023-02-27T00:38:57.746Z,982.00
2023-02-27T00:39:57.656Z,981.97
2023-02-27T00:40:57.567Z,982.01
2023-02-27T00:41:57.481Z,982.00
2023-02-27T00:42:57.398Z,982.00
2023-02-27T00:43:57.308Z,981.98
2023-02-27T00:44:57.216Z,981.99
2023-02-27T00:45:57.131Z,982.03
2023-02-27T00:46:57.043Z,982.02
2023-02-27T00:47:56.956Z,981.95
2023-02-27T00:48:56.868Z,981.96
2023-02-27T00:49:56.775Z,981.97
2023-02-27T00:50:56.695Z,981.95
2023-02-27T00:51:56.604Z,981.96
2023-02-27T00:52:56.515Z,981.98
2023-02-27T00:53:56.426Z,981.97
2023-02-27T00:54:56.341Z,981.98
2023-02-27T00:55:56.254Z,981.94
2023-02-27T00:56:56.161Z,981.96
2023-02-27T00:57:56.186Z,981.91
2023-02-27T00:58:55.991Z,981.88
2023-02-27T00:59:55.898Z,981.90
2023-02-27T01:00:55.862Z,981.90
2023-02-27T01:01:55.721Z,981.89
2023-02-27T01:02:55.696Z,981.87
2023-02-27T01:03:55.546Z,981.88
2023-02-27T01:04:55.460Z,981.90
2023-02-27T01:05:55.372Z,981.84
2023-02-27T01:06:55.296Z,981.88
2023-02-27T01:07:55.204Z,981.89
2023-02-27T01:08:55.112Z,981.83
2023-02-27T01:09:55.024Z,981.85
2023-02-27T01:10:54.937Z,981.84
2023-02-27T01:11:54.851Z,981.86
2023-02-27T01:12:54.758Z,981.87
2023-02-27T01:13:54.671Z,981.86
2023-02-27T01:14:54.591Z,981.87
2023-02-27T01:15:54.493Z,981.82
2023-02-27T01:16:54.411Z,981.84
2023-02-27T01:17:54.321Z,981.84
2023-02-27T01:18:54.239Z,981.84
2023-02-27T01:19:54.145Z,981.84
2023-02-27T01:20:54.056Z,981.80
2023-02-27T01:21:53.986Z,981.87
2023-02-27T01:22:53.885Z,981.89
2023-02-27T01:23:53.788Z,981.89
2023-02-27T01:24:53.704Z,981.87
2023-02-27T01:25:53.621Z,981.89
2023-02-27T01:26:53.541Z,981.86
2023-02-27T01:27:53.439Z,981.87
2023-02-27T01:28:53.351Z,981.90
2023-02-27T01:29:53.264Z,981.90
2023-02-27T01:30:53.242Z,981.87
2023-02-27T01:31:53.292Z,981.92
2023-02-27T01:32:53.001Z,981.93
2023-02-27T01:33:52.915Z,981.92
2023-02-27T01:34:52.828Z,981.91
2023-02-27T01:35:52.742Z,981.93
2023-02-27T01:36:52.646Z,981.97
2023-02-27T01:37:52.558Z,981.94
2023-02-27T01:38:52.468Z,981.99
2023-02-27T01:39:52.380Z,981.95
2023-02-27T01:40:52.294Z,981.96
2023-02-27T01:41:52.203Z,982.01
2023-02-27T01:42:52.117Z,981.96
2023-02-27T01:43:52.027Z,981.99
2023-02-27T01:44:51.941Z,981.98
2023-02-27T01:45:51.884Z,981.99
2023-02-27T01:46:51.766Z,982.00
2023-02-27T01:47:51.676Z,981.96
2023-02-27T01:48:51.587Z,981.95
2023-02-27T01:49:51.500Z,981.95
2023-02-27T01:50:51.410Z,981.98
2023-02-27T01:51:51.329Z,981.94
2023-02-27T01:52:51.236Z,981.97
2023-02-27T01:53:51.150Z,981.94
2023-02-27T01:54:51.058Z,982.00
2023-02-27T01:55:50.977Z,981.96
2023-02-27T01:56:50.880Z,981.99
2023-02-27T01:57:50.792Z,981.97
2023-02-27T01:58:50.709Z,981.96
2023-02-27T01:59:50.626Z,981.97
2023-02-27T02:00:50.581Z,981.90
2023-02-27T02:01:50.448Z,981.96
2023-02-27T02:02:50.363Z,981.94
2023-02-27T02:03:50.270Z,981.95
2023-02-27T02:04:50.189Z,981.97
2023-02-27T02:05:50.085Z,982.00
2023-02-27T02:06:50.003Z,981.97
2023-02-27T02:07:49.916Z,981.98
2023-02-27T02:08:49.824Z,981.98
2023-02-27T02:09:49.749Z,982.02
2023-02-27T02:10:49.648Z,982.02
2023-02-27T02:11:49.565Z,982.02
2023-02-27T02:12:49.468Z,982.00
2023-02-27T02:13:49.383Z,982.02
2023-02-27T02:14:49.295Z,982.01
2023-02-27T02:15:49.207Z,982.05
2023-02-27T02:16:49.183Z,982.05
2023-02-27T02:17:49.027Z,982.05
2023-02-27T02:18:48.944Z,982.04
2023-02-27T02:19:48.853Z,982.08
2023-02-27T02:20:48.762Z,982.08
2023-02-27T02:21:48.673Z,982.06
2023-02-27T02:22:48.586Z,982.04
2023-02-27T02:23:48.505Z,982.06
2023-02-27T02:24:48.410Z,982.05
2023-02-27T02:25:48.318Z,982.09
2023-02-27T02:26:48.232Z,982.10
2023-02-27T02:27:48.146Z,982.12
2023-02-27T02:28:48.061Z,982.11
2023-02-27T02:29:47.972Z,982.08
2023-02-27T02:30:48.013Z,982.09
2023-02-27T02:31:48.086Z,982.09
2023-02-27T02:32:47.702Z,982.07
2023-02-27T02:33:47.612Z,982.13
2023-02-27T02:34:47.528Z,982.12
2023-02-27T02:35:47.438Z,982.11
2023-02-27T02:36:47.350Z,982.13
2023-02-27T02:37:47.260Z,982.14
2023-02-27T02:38:47.177Z,982.11
2023-02-27T02:39:47.083Z,982.14
2023-02-27T02:40:46.994Z,982.16
2023-02-27T02:41:46.912Z,982.16
2023-02-27T02:42:46.818Z,982.17
2023-02-27T02:43:46.734Z,982.19
2023-02-27T02:44:46.648Z,982.16
2023-02-27T02:45:46.568Z,982.17
2023-02-27T02:46:46.468Z,982.20
2023-02-27T02:47:46.375Z,982.18
2023-02-27T02:48:46.290Z,982.19
2023-02-27T02:49:46.197Z,982.17
2023-02-27T02:50:46.121Z,982.17
2023-02-27T02:51:46.024Z,982.15
2023-02-27T02:52:45.937Z,982.15
2023-02-27T02:53:45.852Z,982.13
2023-02-27T02:54:45.768Z,982.14
2023-02-27T02:55:45.670Z,982.17
2023-02-27T02:56:45.582Z,982.18
2023-02-27T02:57:45.492Z,982.20
2023-02-27T02:58:45.405Z,982.23
2023-02-27T02:59:45.326Z,982.17
2023-02-27T03:00:45.228Z,982.18
2023-02-27T03:01:45.245Z,982.18
2023-02-27T03:02:45.051Z,982.18
2023-02-27T03:03:44.964Z,982.23
2023-02-27T03:04:44.980Z,982.25
2023-02-27T03:05:44.781Z,982.21
2023-02-27T03:06:44.703Z,982.24
2023-02-27T03:07:44.656Z,982.24
2023-02-27T03:08:44.520Z,982.25
2023-02-27T03:09:44.433Z,982.26
2023-02-27T03:10:44.347Z,982.26
2023-02-27T03:11:44.254Z,982.27
2023-02-27T03:12:44.190Z,982.30
2023-02-27T03:13:44.076Z,982.34
2023-02-27T03:14:43.989Z,982.30
2023-02-27T03:15:43.941Z,982.29
2023-02-27T03:16:43.815Z,982.30
2023-02-27T03:17:43.756Z,982.29
2023-02-27T03:18:43.643Z,982.28
2023-02-27T03:19:43.544Z,982.32
2023-02-27T03:20:43.462Z,982.28
2023-02-27T03:21:43.367Z,982.28
2023-02-27T03:22:43.287Z,982.30
2023-02-27T03:23:43.193Z,982.33
2023-02-27T03:24:43.102Z,982.35
2023-02-27T03:25:43.014Z,982.38
2023-02-27T03:26:42.946Z,982.40
2023-02-27T03:27:42.836Z,982.39
2023-02-27T03:28:42.752Z,982.43
2023-02-27T03:29:42.662Z,982.45
2023-02-27T03:30:42.616Z,982.45
2023-02-27T03:31:42.524Z,982.42
2023-02-27T03:32:42.410Z,982.41
2023-02-27T03:33:42.302Z,982.45
2023-02-27T03:34:42.219Z,982.45
2023-02-27T03:35:42.132Z,982.42
2023-02-27T03:36:42.043Z,982.45
2023-02-27T03:37:41.947Z,982.49
2023-02-27T03:38:41.864Z,982.45
2023-02-27T03:39:41.774Z,982.40
2023-02-27T03:40:41.686Z,982.42
2023-02-27T03:41:41.597Z,982.43
2023-02-27T03:42:41.513Z,982.46
2023-02-27T03:43:41.419Z,982.43
2023-02-27T03:44:41.336Z,982.44
2023-02-27T03:45:41.245Z,982.47
2023-02-27T03:46:41.258Z,982.49
2023-02-27T03:47:41.069Z,982.45
2023-02-27T03:48:40.972Z,982.49
2023-02-27T03:49:40.888Z,982.44
2023-02-27T03:50:40.799Z,982.46
2023-02-27T03:51:40.712Z,982.51
2023-02-27T03:52:40.629Z,982.50
2023-02-27T03:53:40.541Z,982.56
2023-02-27T03:54:40.445Z,982.55
2023-02-27T03:55:40.358Z,982.56
2023-02-27T03:56:40.267Z,982.57
2023-02-27T03:57:40.178Z,982.62
2023-02-27T03:58:40.090Z,982.61
2023-02-27T03:59:40.004Z,982.61
2023-02-27T04:00:39.917Z,982.62
2023-02-27T04:01:39.838Z,982.67
2023-02-27T04:02:39.743Z,982.58
2023-02-27T04:03:39.649Z,982.60
2023-02-27T04:04:39.570Z,982.60
2023-02-27T04:05:39.473Z,982.61
2023-02-27T04:06:39.386Z,982.64
2023-02-27T04:07:39.295Z,982.66
2023-02-27T04:08:39.203Z,982.61
2023-02-27T04:09:39.118Z,982.65
2023-02-27T04:10:39.167Z,982.61
2023-02-27T04:11:38.942Z,982.62
2023-02-27T04:12:38.852Z,982.63
2023-02-27T04:13:38.771Z,982.62
2023-02-27T04:14:38.673Z,982.62
2023-02-27T04:15:38.585Z,982.63
2023-02-27T04:16:38.497Z,982.60
2023-02-27T04:17:38.407Z,982.61
2023-02-27T04:18:38.330Z,982.66
2023-02-27T04:19:38.234Z,982.67
2023-02-27T04:20:38.143Z,982.65
2023-02-27T04:21:38.056Z,982.66
2023-02-27T04:22:37.970Z,982.71
2023-02-27T04:23:37.878Z,982.70
2023-02-27T04:24:37.792Z,982.66
2023-02-27T04:25:37.698Z,982.68
2023-02-27T04:26:37.616Z,982.66
2023-02-27T04:27:37.545Z,982.70
2023-02-27T04:28:37.443Z,982.63
2023-02-27T04:29:37.349Z,982.66
2023-02-27T04:30:37.259Z,982.66
2023-02-27T04:31:37.280Z,982.65
2023-02-27T04:32:37.158Z,982.69
2023-02-27T04:33:37.004Z,982.66
2023-02-27T04:34:36.906Z,982.68
2023-02-27T04:35:36.820Z,982.66
2023-02-27T04:36:36.730Z,982.65
2023-02-27T04:37:36.652Z,982.62
2023-02-27T04:38:36.553Z,982.65
2023-02-27T04:39:36.463Z,982.63
2023-02-27T04:40:36.374Z,982.64
2023-02-27T04:41:36.293Z,982.59
2023-02-27T04:42:36.204Z,982.60
2023-02-27T04:43:36.124Z,982.63
2023-02-27T04:44:36.022Z,982.60
2023-02-27T04:45:35.943Z,982.64
2023-02-27T04:46:35.856Z,982.63
2023-02-27T04:47:35.754Z,982.66
2023-02-27T04:48:35.674Z,982.59
2023-02-27T04:49:35.580Z,982.62
2023-02-27T04:50:35.490Z,982.61
2023-02-27T04:51:35.406Z,982.64
2023-02-27T04:52:35.312Z,982.61
2023-02-27T04:53:35.222Z,982.64
2023-02-27T04:54:35.136Z,982.65
2023-02-27T04:55:35.046Z,982.62
2023-02-27T04:56:34.957Z,982.63
2023-02-27T04:57:34.868Z,982.65
2023-02-27T04:58:34.786Z,982.63
2023-02-27T04:59:34.691Z,982.67
2023-02-27T05:00:34.605Z,982.63
2023-02-27T05:01:34.535Z,982.63
2023-02-27T05:02:34.543Z,982.62
2023-02-27T05:03:34.332Z,982.63
2023-02-27T05:04:34.249Z,982.62
2023-02-27T05:05:34.156Z,982.66
2023-02-27T05:06:34.075Z,982.66
2023-02-27T05:07:33.982Z,982.62
2023-02-27T05:08:33.904Z,982.69
2023-02-27T05:09:33.801Z,982.66
2023-02-27T05:10:33.723Z,982.65
2023-02-27T05:11:33.626Z,982.68
2023-02-27T05:12:33.534Z,982.65
2023-02-27T05:13:33.451Z,982.66
2023-02-27T05:14:33.357Z,982.63
2023-02-27T05:15:33.295Z,982.64
2023-02-27T05:16:33.381Z,982.67
2023-02-27T05:17:33.222Z,982.66
2023-02-27T05:18:33.002Z,982.67
2023-02-27T05:19:32.917Z,982.62
2023-02-27T05:20:32.826Z,982.61
2023-02-27T05:21:32.735Z,982.63
2023-02-27T05:22:32.650Z,982.61
2023-02-27T05:23:32.568Z,982.61
2023-02-27T05:24:32.478Z,982.64
2023-02-27T05:25:32.384Z,982.63
2023-02-27T05:26:32.299Z,982.68
2023-02-27T05:27:32.203Z,982.66
2023-02-27T05:28:32.113Z,982.71
2023-02-27T05:29:32.029Z,982.75
2023-02-27T05:30:31.952Z,982.73
2023-02-27T05:31:31.887Z,982.76
2023-02-27T05:32:31.780Z,982.75
2023-02-27T05:33:31.670Z,982.75
2023-02-27T05:34:31.581Z,982.72
2023-02-27T05:35:31.629Z,982.74
2023-02-27T05:36:31.403Z,982.76
2023-02-27T05:37:31.312Z,982.74
2023-02-27T05:38:31.224Z,982.74
2023-02-27T05:39:31.135Z,982.79
2023-02-27T05:40:31.045Z,982.76
2023-02-27T05:41:30.959Z,982.75
2023-02-27T05:42:30.870Z,982.74
2023-02-27T05:43:30.778Z,982.76
2023-02-27T05:44:30.690Z,982.76
2023-02-27T05:45:30.603Z,982.73
2023-02-27T05:46:30.519Z,982.75
2023-02-27T05:47:30.427Z,982.72
2023-02-27T05:48:30.339Z,982.75
2023-02-27T05:49:30.243Z,982.73
2023-02-27T05:50:30.159Z,982.76
2023-02-27T05:51:30.065Z,982.75
2023-02-27T05:52:29.978Z,982.74
2023-02-27T05:53:29.888Z,982.72
2023-02-27T05:54:29.804Z,982.74
2023-02-27T05:55:29.714Z,982.77
2023-02-27T05:56:29.844Z,982.77
2023-02-27T05:57:29.544Z,982.79
2023-02-27T05:58:29.448Z,982.77
2023-02-27T05:59:29.364Z,982.80
2023-02-27T06:00:29.272Z,982.78
2023-02-27T06:01:29.180Z,982.77
2023-02-27T06:02:29.118Z,982.81
2023-02-27T06:03:29.038Z,982.81
2023-02-27T06:04:28.919Z,982.79
2023-02-27T06:05:28.845Z,982.81
2023-02-27T06:06:29.104Z,982.82
2023-02-27T06:07:28.652Z,982.81
2023-02-27T06:08:28.561Z,982.81
2023-02-27T06:09:28.475Z,982.80
2023-02-27T06:10:28.387Z,982.87
2023-02-27T06:11:28.296Z,982.87
2023-02-27T06:12:28.207Z,982.91
2023-02-27T06:13:28.131Z,982.92
2023-02-27T06:14:28.037Z,982.91
2023-02-27T06:15:27.940Z,982.91
2023-02-27T06:16:28.246Z,982.94
2023-02-27T06:17:27.765Z,982.98
2023-02-27T06:18:27.686Z,982.94
2023-02-27T06:19:27.587Z,983.00
2023-02-27T06:20:27.498Z,983.01
2023-02-27T06:21:27.409Z,983.00
2023-02-27T06:22:27.321Z,982.99
2023-02-27T06:23:27.239Z,983.00
2023-02-27T06:24:27.147Z,982.97
2023-02-27T06:25:27.059Z,982.98
2023-02-27T06:26:27.218Z,983.03
2023-02-27T06:27:26.876Z,983.01
2023-02-27T06:28:26.788Z,983.09
2023-02-27T06:29:26.699Z,983.04
2023-02-27T06:30:26.611Z,983.12
2023-02-27T06:31:26.519Z,983.12
2023-02-27T06:32:26.435Z,983.12
2023-02-27T06:33:26.341Z,983.12
2023-02-27T06:34:26.256Z,983.20
2023-02-27T06:35:26.165Z,983.13
2023-02-27T06:36:26.487Z,983.17
2023-02-27T06:37:26.010Z,983.18
2023-02-27T06:38:25.902Z,983.18
2023-02-27T06:39:25.808Z,983.15
2023-02-27T06:40:25.725Z,983.17
2023-02-27T06:41:25.631Z,983.15
2023-02-27T06:42:25.543Z,983.21
2023-02-27T06:43:25.453Z,983.19
2023-02-27T06:44:25.376Z,983.17
2023-02-27T06:45:25.277Z,983.21
2023-02-27T06:46:25.529Z,983.20
2023-02-27T06:47:25.100Z,983.25
2023-02-27T06:48:25.012Z,983.23
2023-02-27T06:49:24.922Z,983.20
2023-02-27T06:50:24.861Z,983.22
2023-02-27T06:51:24.744Z,983.23
2023-02-27T06:52:24.658Z,983.23
2023-02-27T06:53:24.565Z,983.22
2023-02-27T06:54:24.479Z,983.21
2023-02-27T06:55:24.388Z,983.19
2023-02-27T06:56:24.298Z,983.21
2023-02-27T06:57:24.221Z,983.22
2023-02-27T06:58:24.121Z,983.25
2023-02-27T06:59:24.041Z,983.25
2023-02-27T07:00:23.963Z,983.24
2023-02-27T07:01:23.895Z,983.24
2023-02-27T07:02:23.771Z,983.27
2023-02-27T07:03:23.682Z,983.26
2023-02-27T07:04:23.616Z,983.32
2023-02-27T07:05:23.521Z,983.29
2023-02-27T07:07:32.416Z,983.27
2023-02-27T07:07:34.943Z,983.35
2023-02-27T07:08:23.241Z,983.27
2023-02-27T07:09:23.186Z,983.33
2023-02-27T07:10:23.064Z,983.30
2023-02-27T07:11:22.973Z,983.28
2023-02-27T07:12:22.887Z,983.32
2023-02-27T07:13:22.794Z,983.32
2023-02-27T07:14:22.709Z,983.28
2023-02-27T07:15:22.622Z,983.26
2023-02-27T07:16:22.528Z,983.29
2023-02-27T07:17:22.448Z,983.27
2023-02-27T07:18:22.362Z,983.27
2023-02-27T07:19:22.266Z,983.27
2023-02-27T07:20:22.175Z,983.22
2023-02-27T07:21:22.095Z,983.27
2023-02-27T07:22:22.013Z,983.23
2023-02-27T07:23:21.912Z,983.24
2023-02-27T07:24:21.827Z,983.27
2023-02-27T07:25:21.740Z,983.27
2023-02-27T07:26:21.651Z,983.24
2023-02-27T07:27:21.577Z,983.26
2023-02-27T07:28:21.516Z,983.27
2023-02-27T07:29:21.379Z,983.30
2023-02-27T07:30:21.300Z,983.31
2023-02-27T07:31:21.294Z,983.32
2023-02-27T07:32:21.165Z,983.30
2023-02-27T07:33:21.028Z,983.31
2023-02-27T07:34:20.949Z,983.35
2023-02-27T07:35:20.865Z,983.36
2023-02-27T07:36:20.767Z,983.41
2023-02-27T07:37:20.683Z,983.45
2023-02-27T07:38:20.595Z,983.41
2023-02-27T07:39:20.518Z,983.40
2023-02-27T07:40:20.434Z,983.45
2023-02-27T07:41:29.932Z,983.44
2023-02-27T07:42:20.242Z,983.45
2023-02-27T07:43:20.152Z,983.43
2023-02-27T07:44:20.067Z,983.42
2023-02-27T07:45:19.983Z,983.42
2023-02-27T07:46:19.998Z,983.40
2023-02-27T07:47:19.817Z,983.43
2023-02-27T07:48:19.713Z,983.46
2023-02-27T07:49:19.637Z,983.47
2023-02-27T07:50:19.540Z,983.43
2023-02-27T07:51:19.455Z,983.46
2023-02-27T07:52:19.364Z,983.49
2023-02-27T07:53:19.278Z,983.48
2023-02-27T07:54:19.209Z,983.51
2023-02-27T07:55:19.103Z,983.51
2023-02-27T07:56:19.040Z,983.53
2023-02-27T07:57:18.939Z,983.47
2023-02-27T07:58:18.846Z,983.55
2023-02-27T07:59:18.753Z,983.51
2023-02-27T08:00:18.677Z,983.54
2023-02-27T08:01:18.581Z,983.51
2023-02-27T08:02:18.552Z,983.49
2023-02-27T08:03:18.404Z,983.49
2023-02-27T08:04:18.371Z,983.52
2023-02-27T08:05:18.233Z,983.53
2023-02-27T08:06:18.145Z,983.50
2023-02-27T08:07:18.062Z,983.53
2023-02-27T08:08:17.973Z,983.51
2023-02-27T08:09:17.883Z,983.51
2023-02-27T08:10:17.814Z,983.56
2023-02-27T08:11:17.719Z,983.61
2023-02-27T08:12:17.625Z,983.57
2023-02-27T08:13:24.930Z,983.57
2023-02-27T08:14:17.456Z,983.59
2023-02-27T08:15:17.366Z,983.63
2023-02-27T08:16:17.360Z,983.65
2023-02-27T08:17:17.197Z,983.61
2023-02-27T08:18:17.106Z,983.63
2023-02-27T08:19:17.021Z,983.60
2023-02-27T08:20:16.935Z,983.62
2023-02-27T08:21:16.846Z,983.61
2023-02-27T08:22:16.766Z,983.61
2023-02-27T08:23:16.677Z,983.59
2023-02-27T08:24:16.597Z,983.59
2023-02-27T08:25:16.503Z,983.60
2023-02-27T08:26:16.419Z,983.62
2023-02-27T08:27:16.332Z,983.57
2023-02-27T08:28:16.271Z,983.61
2023-02-27T08:29:17.044Z,983.67
2023-02-27T08:30:16.068Z,983.67
2023-02-27T08:31:16.027Z,983.65
2023-02-27T08:32:15.912Z,983.64
2023-02-27T08:33:15.826Z,983.65
2023-02-27T08:34:15.737Z,983.67
2023-02-27T08:35:15.645Z,983.65
2023-02-27T08:36:15.581Z,983.67
2023-02-27T08:37:15.483Z,983.62
2023-02-27T08:38:15.392Z,983.64
2023-02-27T08:39:15.301Z,983.69
2023-02-27T08:40:15.210Z,983.71
2023-02-27T08:41:15.129Z,983.73
2023-02-27T08:42:15.043Z,983.73
2023-02-27T08:43:14.955Z,983.65
2023-02-27T08:44:14.867Z,983.74
2023-02-27T08:45:14.785Z,983.74
2023-02-27T08:46:14.749Z,983.73
2023-02-27T08:47:14.613Z,983.77
2023-02-27T08:48:14.526Z,983.72
2023-02-27T08:49:14.485Z,983.76
2023-02-27T08:50:14.365Z,983.78
2023-02-27T08:51:14.274Z,983.77
2023-02-27T08:52:14.195Z,983.80
2023-02-27T08:53:14.118Z,983.81
2023-02-27T08:54:14.016Z,983.74
2023-02-27T08:55:13.933Z,983.81
2023-02-27T08:56:13.860Z,983.84
2023-02-27T08:57:13.765Z,983.77
2023-02-27T08:58:13.681Z,983.81
2023-02-27T08:59:13.597Z,983.80
2023-02-27T09:00:13.558Z,983.92
2023-02-27T09:01:13.532Z,983.90
2023-02-27T09:02:13.343Z,983.86
2023-02-27T09:03:13.261Z,983.88
2023-02-27T09:04:13.163Z,983.86
2023-02-27T09:05:13.090Z,983.80
2023-02-27T09:06:12.999Z,983.82
2023-02-27T09:07:12.917Z,983.83
2023-02-27T09:08:12.828Z,983.91
2023-02-27T09:09:12.748Z,983.88
2023-02-27T09:10:12.660Z,983.85
2023-02-27T09:11:12.578Z,983.89
2023-02-27T09:12:12.489Z,983.86
2023-02-27T09:13:12.404Z,983.85
2023-02-27T09:14:12.333Z,983.85
2023-02-27T09:15:12.234Z,983.91
2023-02-27T09:16:12.152Z,983.95
2023-02-27T09:17:12.074Z,983.94
2023-02-27T09:18:11.987Z,983.95
2023-02-27T09:19:11.900Z,983.91
2023-02-27T09:20:11.807Z,983.88
2023-02-27T09:21:11.724Z,983.88
2023-02-27T09:22:11.639Z,983.88
2023-02-27T09:23:11.555Z,983.88
2023-02-27T09:24:19.608Z,983.89
2023-02-27T09:25:11.389Z,983.93
2023-02-27T09:26:11.309Z,983.97
2023-02-27T09:27:11.215Z,983.96
2023-02-27T09:28:11.127Z,983.91
2023-02-27T09:29:11.043Z,983.96
2023-02-27T09:30:11.022Z,983.98
2023-02-27T09:31:10.886Z,984.02
2023-02-27T09:32:10.880Z,984.00
2023-02-27T09:33:10.713Z,983.96
2023-02-27T09:34:10.618Z,984.06
2023-02-27T09:35:10.542Z,983.99
2023-02-27T09:36:10.504Z,984.02
2023-02-27T09:37:10.365Z,984.03
2023-02-27T09:38:10.280Z,984.07
2023-02-27T09:39:10.202Z,984.08
2023-02-27T09:40:10.113Z,984.12
2023-02-27T09:41:10.033Z,984.08
2023-02-27T09:42:09.941Z,984.10
2023-02-27T09:43:09.899Z,984.10
2023-02-27T09:44:09.771Z,984.15
2023-02-27T09:45:09.687Z,984.14
2023-02-27T09:46:09.648Z,984.13
2023-02-27T09:47:09.520Z,984.10
2023-02-27T09:48:09.435Z,984.15
2023-02-27T09:49:09.349Z,984.19
2023-02-27T09:50:09.279Z,984.18
2023-02-27T09:51:09.183Z,984.16
2023-02-27T09:52:09.103Z,984.20
2023-02-27T09:53:09.010Z,984.21
2023-02-27T09:54:08.930Z,984.25
2023-02-27T09:55:08.846Z,984.25
2023-02-27T09:56:08.766Z,984.30
2023-02-27T09:57:08.674Z,984.28
2023-02-27T09:58:08.589Z,984.33
2023-02-27T09:59:08.509Z,984.31
2023-02-27T10:00:08.420Z,984.37
2023-02-27T10:01:08.338Z,984.32
2023-02-27T10:02:08.277Z,984.38
2023-02-27T10:03:08.211Z,984.28
2023-02-27T10:04:10.779Z,984.36
2023-02-27T10:05:07.997Z,984.36
2023-02-27T10:06:07.916Z,984.31
2023-02-27T10:07:07.829Z,984.34
2023-02-27T10:08:07.743Z,984.35
2023-02-27T10:09:07.662Z,984.38
2023-02-27T10:10:07.573Z,984.33
2023-02-27T10:11:07.489Z,984.36
2023-02-27T10:12:07.712Z,984.39
2023-02-27T10:13:07.320Z,984.40
2023-02-27T10:14:07.238Z,984.41
2023-02-27T10:15:07.150Z,984.41
2023-02-27T10:16:07.062Z,984.41
2023-02-27T10:17:07.012Z,984.39
2023-02-27T10:18:20.160Z,984.40
2023-02-27T10:19:06.835Z,984.36
2023-02-27T10:20:06.723Z,984.41
2023-02-27T10:21:06.646Z,984.39
2023-02-27T10:22:06.561Z,984.41
2023-02-27T10:23:06.471Z,984.38
2023-02-27T10:24:07.766Z,984.39
2023-02-27T10:25:15.041Z,984.42
2023-02-27T10:26:06.215Z,984.40
2023-02-27T10:27:06.131Z,984.37
2023-02-27T10:28:06.060Z,984.38
2023-02-27T10:29:05.971Z,984.31
2023-02-27T10:30:05.874Z,984.38
2023-02-27T10:31:05.905Z,984.38
2023-02-27T10:32:05.752Z,984.36
2023-02-27T10:33:05.620Z,984.36
2023-02-27T10:34:05.539Z,984.39
2023-02-27T10:35:05.454Z,984.41
2023-02-27T10:36:05.511Z,984.38
2023-02-27T10:37:05.278Z,984.40
2023-02-27T10:38:05.210Z,984.35
2023-02-27T10:39:05.111Z,984.41
2023-02-27T10:40:05.022Z,984.39
2023-02-27T10:41:04.940Z,984.38
2023-02-27T10:42:04.853Z,984.43
2023-02-27T10:43:06.426Z,984.38
2023-02-27T10:44:04.690Z,984.42
2023-02-27T10:45:04.606Z,984.39
2023-02-27T10:46:04.531Z,984.40
2023-02-27T10:47:04.435Z,984.43
2023-02-27T10:48:04.342Z,984.42
2023-02-27T10:49:04.265Z,984.50
2023-02-27T10:50:04.188Z,984.45
2023-02-27T10:51:04.085Z,984.43
2023-02-27T10:52:03.997Z,984.44
2023-02-27T10:53:03.914Z,984.47
2023-02-27T10:54:03.826Z,984.39
2023-02-27T10:55:03.751Z,984.49
2023-02-27T10:56:03.656Z,984.51
2023-02-27T10:57:03.570Z,984.51
2023-02-27T10:58:03.487Z,984.51
2023-02-27T10:59:03.408Z,984.51
2023-02-27T11:00:03.321Z,984.48
2023-02-27T11:01:03.232Z,984.50
2023-02-27T11:02:03.153Z,984.52
2023-02-27T11:03:03.066Z,984.46
2023-02-27T11:04:02.987Z,984.47
2023-02-27T11:05:02.917Z,984.51
2023-02-27T11:06:02.812Z,984.45
2023-02-27T11:07:02.719Z,984.48
2023-02-27T11:08:02.631Z,984.45
2023-02-27T11:09:02.551Z,984.46
2023-02-27T11:10:02.460Z,984.56
2023-02-27T11:11:02.377Z,984.42
2023-02-27T11:12:02.287Z,984.47
2023-02-27T11:13:02.216Z,984.42
2023-02-27T11:14:02.118Z,984.51
2023-02-27T11:15:02.059Z,984.48
2023-02-27T11:16:02.005Z,984.49
2023-02-27T11:17:01.862Z,984.45
2023-02-27T11:18:01.784Z,984.43
2023-02-27T11:19:01.696Z,984.42
2023-02-27T11:20:01.633Z,984.49
2023-02-27T11:21:01.525Z,984.47
2023-02-27T11:22:01.449Z,984.43
2023-02-27T11:23:01.352Z,984.47
2023-02-27T11:24:01.286Z,984.48
2023-02-27T11:25:02.834Z,984.43
2023-02-27T11:26:01.096Z,984.42
2023-02-27T11:27:01.014Z,984.41
2023-02-27T11:28:00.925Z,984.41
2023-02-27T11:29:00.842Z,984.44
2023-02-27T11:30:00.759Z,984.35
2023-02-27T11:31:00.695Z,984.32
2023-02-27T11:32:00.733Z,984.25
2023-02-27T11:33:00.504Z,984.28
2023-02-27T11:34:00.416Z,984.29
2023-02-27T11:35:00.328Z,984.34
2023-02-27T11:36:00.276Z,984.28
2023-02-27T11:37:00.155Z,984.22
2023-02-27T11:38:00.072Z,984.25
2023-02-27T11:38:59.985Z,984.27
2023-02-27T11:39:59.930Z,984.26
2023-02-27T11:40:59.813Z,984.28
2023-02-27T11:41:59.725Z,984.21
2023-02-27T11:42:59.646Z,984.20
2023-02-27T11:43:59.554Z,984.17
2023-02-27T11:44:59.478Z,984.21
2023-02-27T11:46:13.375Z,984.21
2023-02-27T11:46:59.316Z,984.19
2023-02-27T11:48:01.247Z,984.22
2023-02-27T11:48:59.130Z,984.24
2023-02-27T11:49:59.041Z,984.28
2023-02-27T11:50:58.956Z,984.24
2023-02-27T11:51:58.875Z,984.23
2023-02-27T11:52:58.807Z,984.15
2023-02-27T11:53:58.701Z,984.14
2023-02-27T11:54:58.622Z,984.10
2023-02-27T11:55:58.594Z,984.11
2023-02-27T11:56:58.454Z,984.13
2023-02-27T11:57:58.360Z,984.17
2023-02-27T11:58:58.276Z,984.13
2023-02-27T11:59:58.187Z,984.18
2023-02-27T12:00:58.102Z,984.12
2023-02-27T12:01:58.046Z,984.15
2023-02-27T12:02:58.027Z,984.11
2023-02-27T12:03:57.929Z,984.08
2023-02-27T12:04:57.774Z,984.13
2023-02-27T12:05:57.697Z,984.11
2023-02-27T12:06:57.591Z,984.06
2023-02-27T12:07:57.509Z,984.08
2023-02-27T12:08:57.420Z,984.10
2023-02-27T12:09:57.336Z,984.09
2023-02-27T12:11:07.770Z,984.11
2023-02-27T12:11:57.164Z,984.10
2023-02-27T12:12:57.081Z,984.11
2023-02-27T12:13:57.019Z,984.12
2023-02-27T12:14:56.948Z,984.08
2023-02-27T12:15:56.863Z,984.08
2023-02-27T12:16:56.743Z,984.12
2023-02-27T12:17:56.656Z,984.11
2023-02-27T12:18:56.587Z,984.15
2023-02-27T12:19:56.484Z,984.07
2023-02-27T12:20:56.405Z,984.10
2023-02-27T12:21:56.315Z,984.14
2023-02-27T12:22:56.228Z,984.08
2023-02-27T12:23:56.148Z,984.12
2023-02-27T12:24:56.067Z,984.12
2023-02-27T12:25:55.979Z,984.12
2023-02-27T12:26:55.891Z,984.11